Nathaniel B. Palmer — WBP3210 — position and weather

sailwx.info

Track history (hours):
 
Tides and Currents Weather Stations Pressure Air Temp Water Temp Dewpoint Dewpoint Depression Visibility Wind Speed Wind Dir Waves Ship Positions

Oceanographic research ship Nathaniel B. Palmer (USA)

Contact: Ethan Norris, ethan.norris.contractor@usap.gov

Detailed information on ship capabilities available from University of Delaware's Ocean Information Center and ARCUS's ALIAS (Arctic Logistics Information and Support) project.

Owner: OFFSHORE SERVICE VESSELS, Cut Off, LA. More information available from US FCC via Universal Licensing System and Coast Guard Vessel Documentation Center.

Last reported at 2020-Oct-30 10:00 UTC. Time now 2020-Oct-30 11:03 UTC.
Position S 44°30' W 080°48'.

Type: Other ship. MMSI: 366610000.

Wind from 280 at 9 knots

Barometer 1026.9 mb
Air temperature 7.7 ° C
Water temperature 10.0 ° C

Date/timePositionNaut miles runAvg speedWind from/ knotsBaromVisibWave heightAir tempDewpointWater temp
2020-Oct-30 10:00S 44°30' W 080°48'1312.7 280 / 91026.9 7.7 10.0
2020-Oct-30 09:00S 44°18' W 080°54'1312.7 270 / 81027.2 7.8 10.0
2020-Oct-30 08:00S 44°06' W 081°00'7 7.4 270 / 81027.5 8.2 10.0
2020-Oct-30 07:00S 44°00' W 081°06'1312.8 280 / 81028.0 8.4 10.2
2020-Oct-30 06:00S 43°48' W 081°12'1312.8 260 / 91028.7 8.2 10.1
2020-Oct-30 05:00S 43°36' W 081°18'7 7.4 260 / 71029.1 8.5 10.2
2020-Oct-30 04:00S 43°30' W 081°24'1312.8 250 / 81029.5 8.7 10.2
2020-Oct-30 03:00S 43°18' W 081°30'1312.8 250 / 91029.8 8.8 10.3
2020-Oct-30 02:00S 43°06' W 081°36'7 7.4 260 / 101030.0 8.8 10.3
2020-Oct-30 01:00S 43°00' W 081°42'1312.8 270 / 101030.2 9.0 10.5
2020-Oct-30 00:00S 42°48' W 081°48'1312.8 270 / 101030.4 9.2 10.6
2020-Oct-29 23:00S 42°36' W 081°54'7 7.5 260 / 101030.7 8.9 10.8
2020-Oct-29 22:00S 42°30' W 082°00'1312.8 270 / 101030.8 9.4 10.8
2020-Oct-29 21:00S 42°18' W 082°06'1312.8 270 / 91030.8 9.4 10.8
2020-Oct-29 20:00S 42°06' W 082°12'7 7.5 280 / 81031.2 9.4 11.0
2020-Oct-29 19:00S 42°00' W 082°18'1312.8 260 / 71031.7 9.2 11.0
2020-Oct-29 18:00S 41°48' W 082°24'1312.8 280 / 81032.0 9.1 11.0
2020-Oct-29 17:00S 41°36' W 082°30'1312.8 260 / 41032.4 8.7 10.9
2020-Oct-29 16:00S 41°24' W 082°36'8 7.5 270 / 51032.6 8.5 10.9
2020-Oct-29 15:00S 41°18' W 082°42'1312.8 270 / 31032.5 9.1 11.2
2020-Oct-29 14:00S 41°06' W 082°48'1312.8 240 / 31032.4 9.1 11.0
2020-Oct-29 13:00S 40°54' W 082°54'8 7.5 200 / 41032.7 9.5 12.0
2020-Oct-29 12:00S 40°48' W 083°00'1312.8 220 / 41032.7 9.5 12.4
2020-Oct-29 11:00S 40°36' W 083°06'1312.8 210 / 51032.5 9.3 12.3
2020-Oct-29 10:00S 40°24' W 083°12'8 7.5 200 / 41032.2 9.5 11.9
2020-Oct-29 09:00S 40°18' W 083°18'1312.8 190 / 41032.4 9.6 11.7
2020-Oct-29 08:00S 40°06' W 083°24'1312.9 170 / 41032.6 9.9 11.9
2020-Oct-29 07:00S 39°54' W 083°30'8 7.6 160 / 51032.9 10.1 11.9
2020-Oct-29 06:00S 39°48' W 083°36'1312.9 180 / 61033.5 10.3 12.0
2020-Oct-29 05:00S 39°36' W 083°42'1312.9 170 / 51033.7 10.5 12.1
2020-Oct-29 04:00S 39°24' W 083°48'8 7.6 150 / 71033.8 10.8 12.3
2020-Oct-29 03:00S 39°18' W 083°54'1312.9 150 / 71033.8 11.0 12.5
2020-Oct-29 02:00S 39°06' W 084°00'1312.9 160 / 61033.5 11.1 12.6
2020-Oct-29 01:00S 38°54' W 084°06'8 7.6 160 / 71033.2 11.2 12.8
2020-Oct-29 00:00S 38°48' W 084°12'1312.9 170 / 81033.0 11.2 12.8
2020-Oct-28 23:00S 38°36' W 084°18'1312.9 170 / 81033.0 11.6 12.8
2020-Oct-28 22:00S 38°24' W 084°24'8 7.6 170 / 71032.9 11.7 12.8
2020-Oct-28 21:00S 38°18' W 084°30'1312.9 150 / 81032.7 11.9 12.9
2020-Oct-28 20:00S 38°06' W 084°36'1312.9 160 / 81032.8 12.1 13.1
2020-Oct-28 19:00S 37°54' W 084°42'8 7.6 150 / 91032.7 12.1 13.4
2020-Oct-28 18:00S 37°48' W 084°48'1212.0 140 / 111032.4 12.2 13.4
2020-Oct-28 17:00S 37°36' W 084°48'8 7.7 150 / 101032.3 12.1 13.6
2020-Oct-28 16:00S 37°30' W 084°54'8 7.7 160 / 91032.2 12.2 13.7
2020-Oct-28 15:00S 37°24' W 085°00'1312.9 150 / 101031.8 12.4 13.7
2020-Oct-28 14:00S 37°12' W 085°06'13 6.5 160 / 91031.4 12.3 13.8
2020-Oct-28 12:00S 37°00' W 085°12'1312.9 190 / 101030.4 11.9 13.3
2020-Oct-28 11:00S 36°48' W 085°18'8 7.7 180 / 111029.6 12.3 13.6
2020-Oct-28 10:00S 36°42' W 085°24'1212.0 210 / 101029.1 12.2 13.5
2020-Oct-28 09:00S 36°30' W 085°24'8 7.7 190 / 121029.0 12.0 13.8
2020-Oct-28 08:00S 36°24' W 085°30'8 7.7 190 / 131028.8 11.6 13.9
2020-Oct-28 07:00S 36°18' W 085°36'1312.9 220 / 151028.6 12.0 14.0
2020-Oct-28 06:00S 36°06' W 085°42'6 6.0 210 / 141028.6 12.4 14.1
2020-Oct-28 05:00S 36°00' W 085°42'8 7.7 200 / 161028.5 12.4 14.1
2020-Oct-28 04:00S 35°54' W 085°48'1312.9 210 / 161028.3 11.8 14.1
2020-Oct-28 03:00S 35°42' W 085°54'6 6.0 210 / 151027.9 12.2 14.2
2020-Oct-28 02:00S 35°36' W 085°54'8 7.7 210 / 191027.4 12.4 14.2
2020-Oct-28 01:00S 35°30' W 086°00'8 7.7 220 / 201026.6 12.8 14.1
2020-Oct-28 00:00S 35°24' W 086°06'6 6.0 230 / 201026.0 13.1 14.1
2020-Oct-27 23:00S 35°18' W 086°06'1313.0 230 / 181025.7 13.4 14.2
2020-Oct-27 22:00S 35°06' W 086°12'8 7.8 240 / 191025.7 13.5 14.2
2020-Oct-27 21:00S 35°00' W 086°18'8 7.8 240 / 201025.8 13.3 14.6
2020-Oct-27 20:00S 34°54' W 086°24'1212.0 240 / 181026.3 13.2 14.7
2020-Oct-27 19:00S 34°42' W 086°24'8 7.8 240 / 181026.5 13.3 14.7
2020-Oct-27 18:00S 34°36' W 086°30'8 7.8 230 / 201026.8 13.3 14.7
2020-Oct-27 17:00S 34°30' W 086°36'1313.0 230 / 191026.9 13.5 14.7
2020-Oct-27 16:00S 34°18' W 086°42'6 6.0 220 / 191026.8 13.5 14.7
2020-Oct-27 15:00S 34°12' W 086°42'8 7.8 230 / 191026.6 13.5 14.7
2020-Oct-27 14:00S 34°06' W 086°48'1313.0 230 / 181026.3 13.5 14.7
2020-Oct-27 13:00S 33°54' W 086°54'6 6.0 220 / 181025.9 13.4 14.8
2020-Oct-27 12:00S 33°48' W 086°54'8 7.8 220 / 191025.6 13.5 14.9
2020-Oct-27 11:00S 33°42' W 087°00'1313.0 210 / 181025.2 13.4 15.3
2020-Oct-27 10:00S 33°30' W 087°06'8 7.8 220 / 171025.0 13.5 15.4
2020-Oct-27 09:00S 33°24' W 087°12'1212.0 210 / 171025.1 13.5 15.5
2020-Oct-27 08:00S 33°12' W 087°12'8 7.8 210 / 191025.3 13.6 15.5
2020-Oct-27 07:00S 33°06' W 087°18'8 7.8 210 / 191025.5 13.8 15.5
2020-Oct-27 06:00S 33°00' W 087°24'1313.0 200 / 171026.0 13.9 15.5
2020-Oct-27 05:00S 32°48' W 087°30'6 6.0 200 / 161026.1 14.0 15.6
2020-Oct-27 04:00S 32°42' W 087°30'8 7.8 190 / 171026.4 14.0 15.6
2020-Oct-27 03:00S 32°36' W 087°36'1313.0 190 / 201026.1 14.2 15.7
2020-Oct-27 02:00S 32°24' W 087°42'6 6.0 190 / 191025.6 14.2 15.8
2020-Oct-27 01:00S 32°18' W 087°42'8 7.9 180 / 191025.2 14.2 16.0
2020-Oct-27 00:00S 32°12' W 087°48'1313.0 180 / 201024.7 14.4 16.0
2020-Oct-26 23:00S 32°00' W 087°54'6 6.0 180 / 201024.1 14.6 16.2
2020-Oct-26 22:00S 31°54' W 087°54'8 7.9 180 / 181023.8 14.0 16.2
2020-Oct-26 21:00S 31°48' W 088°00'1313.0 180 / 221023.5 13.5 16.6
2020-Oct-26 20:00S 31°36' W 088°06'8 7.9 280 / 181023.3 16.0 16.7
2020-Oct-26 19:00S 31°30' W 088°12'1212.0 290 / 161023.8 16.7 17.0
2020-Oct-26 18:00S 31°18' W 088°12'8 7.9 290 / 131024.3 16.8 17.0
2020-Oct-26 17:00S 31°12' W 088°18'1313.1 300 / 121024.7 16.7 17.0
2020-Oct-26 16:00S 31°00' W 088°24'8 7.9 300 / 101025.1 16.4 16.8
2020-Oct-26 15:00S 30°54' W 088°30'1313.1 290 / 91025.3 16.2 16.8
2020-Oct-26 14:00S 30°42' W 088°36'1313.1 290 / 81025.4 16.1 16.9
2020-Oct-26 13:00S 30°30' W 088°42'1313.1 250 / 91025.2 15.9 17.0
2020-Oct-26 12:00S 30°18' W 088°48'6 6.0 250 / 81024.8 15.8 17.1
2020-Oct-26 11:00S 30°12' W 088°48'1313.1 250 / 71024.4 15.5 17.1
2020-Oct-26 10:00S 30°00' W 088°54'1313.1 240 / 81024.3 15.4 17.1
2020-Oct-26 09:00S 29°48' W 089°00'8 7.9 240 / 71024.8 15.4 17.1
2020-Oct-26 08:00S 29°42' W 089°06'1313.1 240 / 61025.3 15.4 17.3
2020-Oct-26 07:00S 29°30' W 089°12'1313.1 240 / 41026.0 15.6 17.2
2020-Oct-26 06:00S 29°18' W 089°18'8 8.0 200 / 21026.7 15.7 17.7
2020-Oct-26 05:00S 29°12' W 089°24'1212.0 200 / 51027.6 16.0 18.0
2020-Oct-26 04:00S 29°00' W 089°24'8 8.0 190 / 51027.8 16.2 17.6
2020-Oct-26 03:00S 28°54' W 089°30'1313.1 160 / 41027.6 16.3 17.7
2020-Oct-26 02:00S 28°42' W 089°36'1313.1 190 / 41027.3 16.5 17.9
2020-Oct-26 01:00S 28°30' W 089°42'8 8.0 140 / 31026.9 16.6 18.0
2020-Oct-26 00:00S 28°24' W 089°48'1313.1 090 / 51026.7 16.8 18.4
2020-Oct-25 23:00S 28°12' W 089°54'1212.0 080
2020-Oct-25 22:00S 28°00' W 089°54'1313.1 090 / 81026.2 17.0 18.5
2020-Oct-25 21:00S 27°48' W 090°00'8 8.0 070 / 8
2020-Oct-25 20:00S 27°42' W 090°06'1313.1 070 / 101027.0 17.5 18.5
2020-Oct-25 19:00S 27°30' W 090°12'1313.1 080 / 141027.3 16.9 18.4
2020-Oct-25 18:00S 27°18' W 090°18'8 8.0 100 / 131028.1 17.1 18.3
2020-Oct-25 17:00S 27°12' W 090°24'1313.1 090 / 131028.0 17.1 18.4
2020-Oct-25 16:00S 27°00' W 090°30'1212.0 080 / 171027.8 16.9 18.2
2020-Oct-25 15:00S 26°48' W 090°30'8 8.0 090 / 171027.4 16.8 18.2
2020-Oct-25 14:00S 26°42' W 090°36'1313.1 100 / 191026.8 16.9 18.5
2020-Oct-25 13:00S 26°30' W 090°42'1313.1 100 / 151026.3 17.0 18.6
2020-Oct-25 12:00S 26°18' W 090°48'1313.2 110 / 131025.4 17.1 18.6
2020-Oct-25 11:00S 26°06' W 090°54'1313.2 120 / 131024.6 17.1 18.6
2020-Oct-25 10:00S 25°54' W 091°00'1313.2 120 / 141024.1 17.4 18.6
2020-Oct-25 09:00S 25°42' W 091°06'1313.2 110 / 161024.1 17.6 18.7
2020-Oct-25 08:00S 25°30' W 091°12'8 8.1 110 / 151024.5 17.8 18.9
2020-Oct-25 07:00S 25°24' W 091°18'1313.2 110 / 191024.8 17.7 18.8
2020-Oct-25 06:00S 25°12' W 091°24'1212.0 110 / 181025.3 17.9 18.7
2020-Oct-25 05:00S 25°00' W 091°24'1313.2 110 / 181025.5 18.1 18.8
2020-Oct-25 04:00S 24°48' W 091°30'1313.2 100 / 201025.3 18.1 18.9
2020-Oct-25 03:00S 24°36' W 091°36'1313.2 120 / 181024.8 18.3 19.1
2020-Oct-25 02:00S 24°24' W 091°42'8 8.1 120 / 191024.3 18.4 19.1
2020-Oct-25 01:00S 24°18' W 091°48'1313.2 120 / 181023.7 18.6 19.2
2020-Oct-25 00:00S 24°06' W 091°54'1313.2 120 / 171023.2 18.8 19.3
2020-Oct-24 23:00S 23°54' W 092°00'1313.2 120 / 141022.8 18.8 19.5
2020-Oct-24 22:00S 23°42' W 092°06'1313.2 130 / 121022.8 19.3 19.7
2020-Oct-24 21:00S 23°30' W 092°12'1313.2 150 / 91023.1 19.6 20.0
2020-Oct-24 20:00S 23°18' W 092°18'6 6.0 140 / 71023.6 19.6 19.8
2020-Oct-24 19:00S 23°12' W 092°18'1313.2 120 / 81024.1 19.3 19.7
2020-Oct-24 18:00S 23°00' W 092°24'1313.2 120 / 81024.4 19.2 19.5
2020-Oct-24 17:00S 22°48' W 092°30'1313.2 120 / 111024.7 19.1 19.6
2020-Oct-24 16:00S 22°36' W 092°36'1313.2 120 / 111024.9 19.2 19.5
2020-Oct-24 15:00S 22°24' W 092°42'1313.2 120 / 121024.7 19.1 19.3
2020-Oct-24 14:00S 22°12' W 092°48'8 8.2 130 / 131024.1 18.9 19.3
2020-Oct-24 13:00S 22°06' W 092°54'1313.2 130 / 141023.3 18.6 19.3
2020-Oct-24 12:00S 21°54' W 093°00'1212.0 140 / 151022.6 18.3 19.3
2020-Oct-24 11:00S 21°42' W 093°00'1313.2 140 / 161022.0 18.3 19.3
2020-Oct-24 10:00S 21°30' W 093°06'8 8.2 140 / 151021.6 18.2 19.2
2020-Oct-24 09:00S 21°24' W 093°12'1313.2 140 / 141021.7 18.2 19.3
2020-Oct-24 08:00S 21°12' W 093°18'1313.2 140 / 141022.2 18.3 19.4
2020-Oct-24 07:00S 21°00' W 093°24'1313.2 140 / 141022.4 18.4 19.5
2020-Oct-24 06:00S 20°48' W 093°30'1313.2 140 / 131022.9 18.6 19.6
2020-Oct-24 05:00S 20°36' W 093°36'1212.0 130 / 131023.2 18.8 19.6
2020-Oct-24 04:00S 20°24' W 093°36'8 8.2 130 / 131022.9 19.0 19.6
2020-Oct-24 03:00S 20°18' W 093°42'1313.3 130 / 131022.5 19.0 19.6
2020-Oct-24 02:00S 20°06' W 093°48'1313.3 130 / 141022.0 19.0 19.6
2020-Oct-24 01:00S 19°54' W 093°54'1313.3 130 / 141021.5 19.0 19.7
2020-Oct-24 00:00S 19°42' W 094°00'1313.3 130 / 141021.1 19.4 19.7
2020-Oct-23 23:00S 19°30' W 094°06'1313.3 120 / 141020.6 19.6 19.8
2020-Oct-23 22:00S 19°18' W 094°12'1313.3 110 / 141020.4 19.6 19.7
2020-Oct-23 21:00S 19°06' W 094°18'6 6.0 100 / 141020.6 19.7 19.8
2020-Oct-23 20:00S 19°00' W 094°18'1313.3 110 / 141021.1 19.7 19.8
2020-Oct-23 19:00S 18°48' W 094°24'1313.3 100 / 171021.4 19.8 19.6
2020-Oct-23 18:00S 18°36' W 094°30'1313.3 100 / 191021.7 19.4 19.6
2020-Oct-23 17:00S 18°24' W 094°36'1313.3 100 / 171022.0 19.6 19.6
2020-Oct-23 16:00S 18°12' W 094°42'1313.3 100 / 191021.9 19.5 19.5
2020-Oct-23 15:00S 18°00' W 094°48'8 8.3 100 / 201021.7 19.1 19.6
2020-Oct-23 14:00S 17°54' W 094°54'1212.0 100 / 171021.1 19.1 19.6
2020-Oct-23 13:00S 17°42' W 094°54'1313.3 100 / 151020.2 19.3 19.7
2020-Oct-23 12:00S 17°30' W 095°00'1313.3 120 / 121019.7 19.2 19.7
2020-Oct-23 11:00S 17°18' W 095°06'1313.3 110 / 151019.1 19.3 19.7
2020-Oct-23 10:00S 17°06' W 095°12'1313.3 110 / 161018.6 19.0 19.8
2020-Oct-23 09:00S 16°54' W 095°18'8 8.3 120 / 171018.7 19.1 20.0
2020-Oct-23 08:00S 16°48' W 095°24'1313.3 120 / 171019.0 19.2 20.1
2020-Oct-23 07:00S 16°36' W 095°30'1212.0 110 / 171019.5 19.4 20.1
2020-Oct-23 06:00S 16°24' W 095°30'1313.3 110 / 181020.2 19.6 20.1
2020-Oct-23 05:00S 16°12' W 095°36'1313.3 100 / 191020.4 19.7 20.1
2020-Oct-23 04:00S 16°00' W 095°42'8 8.3 110 / 181020.0 19.8 20.1
2020-Oct-23 03:00S 15°54' W 095°48'1313.3 110 / 201019.4 19.7 20.1
2020-Oct-23 02:00S 15°42' W 095°54'1313.3 110 / 201018.6 19.7 20.3
2020-Oct-23 01:00S 15°30' W 096°00'1212.0 110 / 201017.8 19.8 20.3
2020-Oct-23 00:00S 15°18' W 096°00'1313.3 110 / 211017.0 19.9 20.2
2020-Oct-22 23:00S 15°06' W 096°06'8 8.3 110 / 221016.8 19.8 20.1
2020-Oct-22 22:00S 15°00' W 096°12'1313.3 110 / 231016.9 19.9 20.2
2020-Oct-22 21:00S 14°48' W 096°18'1313.3 100 / 221017.1 19.7 20.5
2020-Oct-22 20:00S 14°36' W 096°24'6 6.0 100 / 221017.5 20.1 20.5
2020-Oct-22 19:00S 14°30' W 096°24'8 8.4 100 / 231018.2 20.1 20.4
2020-Oct-22 18:00S 14°24' W 096°30'1212.0 110 / 231018.6 20.0 20.5
2020-Oct-22 17:00S 14°12' W 096°30'8 8.4 100 / 241018.8 20.1 20.3
2020-Oct-22 16:00S 14°06' W 096°36'1313.3 110 / 231018.7 20.1 20.3
2020-Oct-22 15:00S 13°54' W 096°42'6 6.0 110 / 241018.4 19.9 20.4
2020-Oct-22 14:00S 13°48' W 096°42'120 9.2 110 / 221017.8 19.7 20.5
2020-Oct-22 01:00S 12°00' W 097°36'1212.0 110 / 221014.8 20.1 21.6
2020-Oct-22 00:00S 11°48' W 097°36'8 8.4 110 / 221014.3 20.3 21.6
2020-Oct-21 23:00S 11°42' W 097°42'1313.4 110 / 221014.1 20.3 21.7
2020-Oct-21 22:00S 11°30' W 097°48'6 6.0 110 / 221014.3 19.7 21.6
2020-Oct-21 21:00S 11°24' W 097°48'1313.4 110 / 211014.8 20.5 21.6
2020-Oct-21 20:00S 11°12' W 097°54'8 8.4 110 / 211015.6 20.1 21.7
2020-Oct-21 19:00S 11°06' W 098°00'6 6.0 100 / 221016.1 20.3 21.6
2020-Oct-21 18:00S 11°00' W 098°00'1313.4 100 / 221016.7 20.5 21.6
2020-Oct-21 17:00S 10°48' W 098°06'8 8.4 110 / 221017.2 20.2 21.5
2020-Oct-21 16:00S 10°42' W 098°12'1212.0 110 / 241017.0 20.6 21.5
2020-Oct-21 15:00S 10°30' W 098°12'8 8.4 100 / 241016.5 20.2 21.6
2020-Oct-21 14:00S 10°24' W 098°18'8 8.4 110 / 231015.6 20.4 21.6
2020-Oct-21 13:00S 10°18' W 098°24'1212.0 100 / 231014.7 19.7 21.6
2020-Oct-21 12:00S 10°06' W 098°24'8 8.4 100 / 241014.0 19.7 21.6
2020-Oct-21 11:00S 10°00' W 098°30'1212.0 100 / 221013.4 19.8 21.7
2020-Oct-21 10:00S 09°48' W 098°30'8 8.4 110 / 221013.4 20.0 21.7
2020-Oct-21 09:00S 09°42' W 098°36'1313.4 110 / 211013.6 20.2 21.7
2020-Oct-21 08:00S 09°30' W 098°42'6 6.0 120 / 231014.0 19.9 21.9
2020-Oct-21 07:00S 09°24' W 098°42'8 8.4 120 / 211014.6 20.2 21.9
2020-Oct-21 06:00S 09°18' W 098°48'1313.4 120 / 211014.9 20.5 21.9
2020-Oct-21 05:00S 09°06' W 098°54'6 6.0 110 / 211014.7 20.3 22.0
2020-Oct-21 04:00S 09°00' W 098°54'1313.4 120 / 211014.3 20.8 22.0
2020-Oct-21 03:00S 08°48' W 099°00'8 8.4 120 / 201013.8 21.0 22.0
2020-Oct-21 02:00S 08°42' W 099°06'1212.0 120 / 211013.1 21.2 22.0
2020-Oct-21 01:00S 08°30' W 099°06'8 8.4 130 / 201012.4 21.4 22.0
2020-Oct-21 00:00S 08°24' W 099°12'8 8.4 130 / 191011.9 21.6 22.1
2020-Oct-20 23:00S 08°18' W 099°18'1212.0 120 / 191012.0 21.6 22.1
2020-Oct-20 22:00S 08°06' W 099°18'8 8.4 110 / 181012.1 21.3 22.0
2020-Oct-20 21:00S 08°00' W 099°24'1212.0 110 / 201012.6 21.0 22.0
2020-Oct-20 20:00S 07°48' W 099°24'8 8.4 120 / 201013.3 21.4 22.0
2020-Oct-20 19:00S 07°42' W 099°30'8 8.4 120 / 201014.0 21.6 21.9
2020-Oct-20 18:00S 07°36' W 099°36'1212.0 110 / 201015.1 21.7 21.6
2020-Oct-20 17:00S 07°24' W 099°36'8 8.5 120 / 151015.8 21.3 21.4
2020-Oct-20 16:00S 07°18' W 099°42'1313.4 120 / 191015.7 21.7 21.4
2020-Oct-20 15:00S 07°06' W 099°48'6 6.0 120 / 181015.4 22.0 21.2
2020-Oct-20 14:00S 07°00' W 099°48'1313.4 120 / 181014.6 21.6 21.2
2020-Oct-20 13:00S 06°48' W 099°54'8 8.5 130 / 161013.9 21.4 21.2
2020-Oct-20 12:00S 06°42' W 100°00'1212.0 130 / 171013.0 21.3 21.2
2020-Oct-20 11:00S 06°30' W 100°00'8 8.5 120 / 161012.6 21.3 21.2
2020-Oct-20 10:00S 06°24' W 100°06'   120 / 171012.7 21.1 21.2
Track history (hours):
 
Tides and Currents Weather Stations Pressure Air Temp Water Temp Dewpoint Dewpoint Depression Visibility Wind Speed Wind Dir Waves Ship Positions

Oceanographic research ship Nathaniel B. Palmer (USA)

Contact: Ethan Norris, ethan.norris.contractor@usap.gov

Detailed information on ship capabilities available from University of Delaware's Ocean Information Center and ARCUS's ALIAS (Arctic Logistics Information and Support) project.

Owner: OFFSHORE SERVICE VESSELS, Cut Off, LA. More information available from US FCC via Universal Licensing System and Coast Guard Vessel Documentation Center.

Last reported at 2020-Oct-30 10:00 UTC. Time now 2020-Oct-30 11:03 UTC.
Position S 44°30' W 080°48'.

Type: Other ship. MMSI: 366610000.

Wind from 280 at 9 knots

Barometer 1026.9 mb
Air temperature 7.7 ° C
Water temperature 10.0 ° C

Date/timePositionNaut miles runAvg speedWind from/ knotsBaromVisibWave heightAir tempDewpointWater temp
2020-Oct-30 10:00S 44°30' W 080°48'1312.7 280 / 91026.9 7.7 10.0
2020-Oct-30 09:00S 44°18' W 080°54'1312.7 270 / 81027.2 7.8 10.0
2020-Oct-30 08:00S 44°06' W 081°00'7 7.4 270 / 81027.5 8.2 10.0
2020-Oct-30 07:00S 44°00' W 081°06'1312.8 280 / 81028.0 8.4 10.2
2020-Oct-30 06:00S 43°48' W 081°12'1312.8 260 / 91028.7 8.2 10.1
2020-Oct-30 05:00S 43°36' W 081°18'7 7.4 260 / 71029.1 8.5 10.2
2020-Oct-30 04:00S 43°30' W 081°24'1312.8 250 / 81029.5 8.7 10.2
2020-Oct-30 03:00S 43°18' W 081°30'1312.8 250 / 91029.8 8.8 10.3
2020-Oct-30 02:00S 43°06' W 081°36'7 7.4 260 / 101030.0 8.8 10.3
2020-Oct-30 01:00S 43°00' W 081°42'1312.8 270 / 101030.2 9.0 10.5
2020-Oct-30 00:00S 42°48' W 081°48'1312.8 270 / 101030.4 9.2 10.6
2020-Oct-29 23:00S 42°36' W 081°54'7 7.5 260 / 101030.7 8.9 10.8
2020-Oct-29 22:00S 42°30' W 082°00'1312.8 270 / 101030.8 9.4 10.8
2020-Oct-29 21:00S 42°18' W 082°06'1312.8 270 / 91030.8 9.4 10.8
2020-Oct-29 20:00S 42°06' W 082°12'7 7.5 280 / 81031.2 9.4 11.0
2020-Oct-29 19:00S 42°00' W 082°18'1312.8 260 / 71031.7 9.2 11.0
2020-Oct-29 18:00S 41°48' W 082°24'1312.8 280 / 81032.0 9.1 11.0
2020-Oct-29 17:00S 41°36' W 082°30'1312.8 260 / 41032.4 8.7 10.9
2020-Oct-29 16:00S 41°24' W 082°36'8 7.5 270 / 51032.6 8.5 10.9
2020-Oct-29 15:00S 41°18' W 082°42'1312.8 270 / 31032.5 9.1 11.2
2020-Oct-29 14:00S 41°06' W 082°48'1312.8 240 / 31032.4 9.1 11.0
2020-Oct-29 13:00S 40°54' W 082°54'8 7.5 200 / 41032.7 9.5 12.0
2020-Oct-29 12:00S 40°48' W 083°00'1312.8 220 / 41032.7 9.5 12.4
2020-Oct-29 11:00S 40°36' W 083°06'1312.8 210 / 51032.5 9.3 12.3
2020-Oct-29 10:00S 40°24' W 083°12'8 7.5 200 / 41032.2 9.5 11.9
2020-Oct-29 09:00S 40°18' W 083°18'1312.8 190 / 41032.4 9.6 11.7
2020-Oct-29 08:00S 40°06' W 083°24'1312.9 170 / 41032.6 9.9 11.9
2020-Oct-29 07:00S 39°54' W 083°30'8 7.6 160 / 51032.9 10.1 11.9
2020-Oct-29 06:00S 39°48' W 083°36'1312.9 180 / 61033.5 10.3 12.0
2020-Oct-29 05:00S 39°36' W 083°42'1312.9 170 / 51033.7 10.5 12.1
2020-Oct-29 04:00S 39°24' W 083°48'8 7.6 150 / 71033.8 10.8 12.3
2020-Oct-29 03:00S 39°18' W 083°54'1312.9 150 / 71033.8 11.0 12.5
2020-Oct-29 02:00S 39°06' W 084°00'1312.9 160 / 61033.5 11.1 12.6
2020-Oct-29 01:00S 38°54' W 084°06'8 7.6 160 / 71033.2 11.2 12.8
2020-Oct-29 00:00S 38°48' W 084°12'1312.9 170 / 81033.0 11.2 12.8
2020-Oct-28 23:00S 38°36' W 084°18'1312.9 170 / 81033.0 11.6 12.8
2020-Oct-28 22:00S 38°24' W 084°24'8 7.6 170 / 71032.9 11.7 12.8
2020-Oct-28 21:00S 38°18' W 084°30'1312.9 150 / 81032.7 11.9 12.9
2020-Oct-28 20:00S 38°06' W 084°36'1312.9 160 / 81032.8 12.1 13.1
2020-Oct-28 19:00S 37°54' W 084°42'8 7.6 150 / 91032.7 12.1 13.4
2020-Oct-28 18:00S 37°48' W 084°48'1212.0 140 / 111032.4 12.2 13.4
2020-Oct-28 17:00S 37°36' W 084°48'8 7.7 150 / 101032.3 12.1 13.6
2020-Oct-28 16:00S 37°30' W 084°54'8 7.7 160 / 91032.2 12.2 13.7
2020-Oct-28 15:00S 37°24' W 085°00'1312.9 150 / 101031.8 12.4 13.7
2020-Oct-28 14:00S 37°12' W 085°06'13 6.5 160 / 91031.4 12.3 13.8
2020-Oct-28 12:00S 37°00' W 085°12'1312.9 190 / 101030.4 11.9 13.3
2020-Oct-28 11:00S 36°48' W 085°18'8 7.7 180 / 111029.6 12.3 13.6
2020-Oct-28 10:00S 36°42' W 085°24'1212.0 210 / 101029.1 12.2 13.5
2020-Oct-28 09:00S 36°30' W 085°24'8 7.7 190 / 121029.0 12.0 13.8
2020-Oct-28 08:00S 36°24' W 085°30'8 7.7 190 / 131028.8 11.6 13.9
2020-Oct-28 07:00S 36°18' W 085°36'1312.9 220 / 151028.6 12.0 14.0
2020-Oct-28 06:00S 36°06' W 085°42'6 6.0 210 / 141028.6 12.4 14.1
2020-Oct-28 05:00S 36°00' W 085°42'8 7.7 200 / 161028.5 12.4 14.1
2020-Oct-28 04:00S 35°54' W 085°48'1312.9 210 / 161028.3 11.8 14.1
2020-Oct-28 03:00S 35°42' W 085°54'6 6.0 210 / 151027.9 12.2 14.2
2020-Oct-28 02:00S 35°36' W 085°54'8 7.7 210 / 191027.4 12.4 14.2
2020-Oct-28 01:00S 35°30' W 086°00'8 7.7 220 / 201026.6 12.8 14.1
2020-Oct-28 00:00S 35°24' W 086°06'6 6.0 230 / 201026.0 13.1 14.1
2020-Oct-27 23:00S 35°18' W 086°06'1313.0 230 / 181025.7 13.4 14.2
2020-Oct-27 22:00S 35°06' W 086°12'8 7.8 240 / 191025.7 13.5 14.2
2020-Oct-27 21:00S 35°00' W 086°18'8 7.8 240 / 201025.8 13.3 14.6
2020-Oct-27 20:00S 34°54' W 086°24'1212.0 240 / 181026.3 13.2 14.7
2020-Oct-27 19:00S 34°42' W 086°24'8 7.8 240 / 181026.5 13.3 14.7
2020-Oct-27 18:00S 34°36' W 086°30'8 7.8 230 / 201026.8 13.3 14.7
2020-Oct-27 17:00S 34°30' W 086°36'1313.0 230 / 191026.9 13.5 14.7
2020-Oct-27 16:00S 34°18' W 086°42'6 6.0 220 / 191026.8 13.5 14.7
2020-Oct-27 15:00S 34°12' W 086°42'8 7.8 230 / 191026.6 13.5 14.7
2020-Oct-27 14:00S 34°06' W 086°48'1313.0 230 / 181026.3 13.5 14.7
2020-Oct-27 13:00S 33°54' W 086°54'6 6.0 220 / 181025.9 13.4 14.8
2020-Oct-27 12:00S 33°48' W 086°54'8 7.8 220 / 191025.6 13.5 14.9
2020-Oct-27 11:00S 33°42' W 087°00'1313.0 210 / 181025.2 13.4 15.3
2020-Oct-27 10:00S 33°30' W 087°06'8 7.8 220 / 171025.0 13.5 15.4
2020-Oct-27 09:00S 33°24' W 087°12'1212.0 210 / 171025.1 13.5 15.5
2020-Oct-27 08:00S 33°12' W 087°12'8 7.8 210 / 191025.3 13.6 15.5
2020-Oct-27 07:00S 33°06' W 087°18'8 7.8 210 / 191025.5 13.8 15.5
2020-Oct-27 06:00S 33°00' W 087°24'1313.0 200 / 171026.0 13.9 15.5
2020-Oct-27 05:00S 32°48' W 087°30'6 6.0 200 / 161026.1 14.0 15.6
2020-Oct-27 04:00S 32°42' W 087°30'8 7.8 190 / 171026.4 14.0 15.6
2020-Oct-27 03:00S 32°36' W 087°36'1313.0 190 / 201026.1 14.2 15.7
2020-Oct-27 02:00S 32°24' W 087°42'6 6.0 190 / 191025.6 14.2 15.8
2020-Oct-27 01:00S 32°18' W 087°42'8 7.9 180 / 191025.2 14.2 16.0
2020-Oct-27 00:00S 32°12' W 087°48'1313.0 180 / 201024.7 14.4 16.0
2020-Oct-26 23:00S 32°00' W 087°54'6 6.0 180 / 201024.1 14.6 16.2
2020-Oct-26 22:00S 31°54' W 087°54'8 7.9 180 / 181023.8 14.0 16.2
2020-Oct-26 21:00S 31°48' W 088°00'1313.0 180 / 221023.5 13.5 16.6
2020-Oct-26 20:00S 31°36' W 088°06'8 7.9 280 / 181023.3 16.0 16.7
2020-Oct-26 19:00S 31°30' W 088°12'1212.0 290 / 161023.8 16.7 17.0
2020-Oct-26 18:00S 31°18' W 088°12'8 7.9 290 / 131024.3 16.8 17.0
2020-Oct-26 17:00S 31°12' W 088°18'1313.1 300 / 121024.7 16.7 17.0
2020-Oct-26 16:00S 31°00' W 088°24'8 7.9 300 / 101025.1 16.4 16.8
2020-Oct-26 15:00S 30°54' W 088°30'1313.1 290 / 91025.3 16.2 16.8
2020-Oct-26 14:00S 30°42' W 088°36'1313.1 290 / 81025.4 16.1 16.9
2020-Oct-26 13:00S 30°30' W 088°42'1313.1 250 / 91025.2 15.9 17.0
2020-Oct-26 12:00S 30°18' W 088°48'6 6.0 250 / 81024.8 15.8 17.1
2020-Oct-26 11:00S 30°12' W 088°48'1313.1 250 / 71024.4 15.5 17.1
2020-Oct-26 10:00S 30°00' W 088°54'1313.1 240 / 81024.3 15.4 17.1
2020-Oct-26 09:00S 29°48' W 089°00'8 7.9 240 / 71024.8 15.4 17.1
2020-Oct-26 08:00S 29°42' W 089°06'1313.1 240 / 61025.3 15.4 17.3
2020-Oct-26 07:00S 29°30' W 089°12'1313.1 240 / 41026.0 15.6 17.2
2020-Oct-26 06:00S 29°18' W 089°18'8 8.0 200 / 21026.7 15.7 17.7
2020-Oct-26 05:00S 29°12' W 089°24'1212.0 200 / 51027.6 16.0 18.0
2020-Oct-26 04:00S 29°00' W 089°24'8 8.0 190 / 51027.8 16.2 17.6
2020-Oct-26 03:00S 28°54' W 089°30'1313.1 160 / 41027.6 16.3 17.7
2020-Oct-26 02:00S 28°42' W 089°36'1313.1 190 / 41027.3 16.5 17.9
2020-Oct-26 01:00S 28°30' W 089°42'8 8.0 140 / 31026.9 16.6 18.0
2020-Oct-26 00:00S 28°24' W 089°48'1313.1 090 / 51026.7 16.8 18.4
2020-Oct-25 23:00S 28°12' W 089°54'1212.0 080
2020-Oct-25 22:00S 28°00' W 089°54'1313.1 090 / 81026.2 17.0 18.5
2020-Oct-25 21:00S 27°48' W 090°00'8 8.0 070 / 8
2020-Oct-25 20:00S 27°42' W 090°06'1313.1 070 / 101027.0 17.5 18.5
2020-Oct-25 19:00S 27°30' W 090°12'1313.1 080 / 141027.3 16.9 18.4
2020-Oct-25 18:00S 27°18' W 090°18'8 8.0 100 / 131028.1 17.1 18.3
2020-Oct-25 17:00S 27°12' W 090°24'1313.1 090 / 131028.0 17.1 18.4
2020-Oct-25 16:00S 27°00' W 090°30'1212.0 080 / 171027.8 16.9 18.2
2020-Oct-25 15:00S 26°48' W 090°30'8 8.0 090 / 171027.4 16.8 18.2
2020-Oct-25 14:00S 26°42' W 090°36'1313.1 100 / 191026.8 16.9 18.5
2020-Oct-25 13:00S 26°30' W 090°42'1313.1 100 / 151026.3 17.0 18.6
2020-Oct-25 12:00S 26°18' W 090°48'1313.2 110 / 131025.4 17.1 18.6
2020-Oct-25 11:00S 26°06' W 090°54'1313.2 120 / 131024.6 17.1 18.6
2020-Oct-25 10:00S 25°54' W 091°00'1313.2 120 / 141024.1 17.4 18.6
2020-Oct-25 09:00S 25°42' W 091°06'1313.2 110 / 161024.1 17.6 18.7
2020-Oct-25 08:00S 25°30' W 091°12'8 8.1 110 / 151024.5 17.8 18.9
2020-Oct-25 07:00S 25°24' W 091°18'1313.2 110 / 191024.8 17.7 18.8
2020-Oct-25 06:00S 25°12' W 091°24'1212.0 110 / 181025.3 17.9 18.7
2020-Oct-25 05:00S 25°00' W 091°24'1313.2 110 / 181025.5 18.1 18.8
2020-Oct-25 04:00S 24°48' W 091°30'1313.2 100 / 201025.3 18.1 18.9
2020-Oct-25 03:00S 24°36' W 091°36'1313.2 120 / 181024.8 18.3 19.1
2020-Oct-25 02:00S 24°24' W 091°42'8 8.1 120 / 191024.3 18.4 19.1
2020-Oct-25 01:00S 24°18' W 091°48'1313.2 120 / 181023.7 18.6 19.2
2020-Oct-25 00:00S 24°06' W 091°54'1313.2 120 / 171023.2 18.8 19.3
2020-Oct-24 23:00S 23°54' W 092°00'1313.2 120 / 141022.8 18.8 19.5
2020-Oct-24 22:00S 23°42' W 092°06'1313.2 130 / 121022.8 19.3 19.7
2020-Oct-24 21:00S 23°30' W 092°12'1313.2 150 / 91023.1 19.6 20.0
2020-Oct-24 20:00S 23°18' W 092°18'6 6.0 140 / 71023.6 19.6 19.8
2020-Oct-24 19:00S 23°12' W 092°18'1313.2 120 / 81024.1 19.3 19.7
2020-Oct-24 18:00S 23°00' W 092°24'1313.2 120 / 81024.4 19.2 19.5
2020-Oct-24 17:00S 22°48' W 092°30'1313.2 120 / 111024.7 19.1 19.6
2020-Oct-24 16:00S 22°36' W 092°36'1313.2 120 / 111024.9 19.2 19.5
2020-Oct-24 15:00S 22°24' W 092°42'1313.2 120 / 121024.7 19.1 19.3
2020-Oct-24 14:00S 22°12' W 092°48'8 8.2 130 / 131024.1 18.9 19.3
2020-Oct-24 13:00S 22°06' W 092°54'1313.2 130 / 141023.3 18.6 19.3
2020-Oct-24 12:00S 21°54' W 093°00'1212.0 140 / 151022.6 18.3 19.3
2020-Oct-24 11:00S 21°42' W 093°00'1313.2 140 / 161022.0 18.3 19.3
2020-Oct-24 10:00S 21°30' W 093°06'8 8.2 140 / 151021.6 18.2 19.2
2020-Oct-24 09:00S 21°24' W 093°12'1313.2 140 / 141021.7 18.2 19.3
2020-Oct-24 08:00S 21°12' W 093°18'1313.2 140 / 141022.2 18.3 19.4
2020-Oct-24 07:00S 21°00' W 093°24'1313.2 140 / 141022.4 18.4 19.5
2020-Oct-24 06:00S 20°48' W 093°30'1313.2 140 / 131022.9 18.6 19.6
2020-Oct-24 05:00S 20°36' W 093°36'1212.0 130 / 131023.2 18.8 19.6
2020-Oct-24 04:00S 20°24' W 093°36'8 8.2 130 / 131022.9 19.0 19.6
2020-Oct-24 03:00S 20°18' W 093°42'1313.3 130 / 131022.5 19.0 19.6
2020-Oct-24 02:00S 20°06' W 093°48'1313.3 130 / 141022.0 19.0 19.6
2020-Oct-24 01:00S 19°54' W 093°54'1313.3 130 / 141021.5 19.0 19.7
2020-Oct-24 00:00S 19°42' W 094°00'1313.3 130 / 141021.1 19.4 19.7
2020-Oct-23 23:00S 19°30' W 094°06'1313.3 120 / 141020.6 19.6 19.8
2020-Oct-23 22:00S 19°18' W 094°12'1313.3 110 / 141020.4 19.6 19.7
2020-Oct-23 21:00S 19°06' W 094°18'6 6.0 100 / 141020.6 19.7 19.8
2020-Oct-23 20:00S 19°00' W 094°18'1313.3 110 / 141021.1 19.7 19.8
2020-Oct-23 19:00S 18°48' W 094°24'1313.3 100 / 171021.4 19.8 19.6
2020-Oct-23 18:00S 18°36' W 094°30'1313.3 100 / 191021.7 19.4 19.6
2020-Oct-23 17:00S 18°24' W 094°36'1313.3 100 / 171022.0 19.6 19.6
2020-Oct-23 16:00S 18°12' W 094°42'1313.3 100 / 191021.9 19.5 19.5
2020-Oct-23 15:00S 18°00' W 094°48'8 8.3 100 / 201021.7 19.1 19.6
2020-Oct-23 14:00S 17°54' W 094°54'1212.0 100 / 171021.1 19.1 19.6
2020-Oct-23 13:00S 17°42' W 094°54'1313.3 100 / 151020.2 19.3 19.7
2020-Oct-23 12:00S 17°30' W 095°00'1313.3 120 / 121019.7 19.2 19.7
2020-Oct-23 11:00S 17°18' W 095°06'1313.3 110 / 151019.1 19.3 19.7
2020-Oct-23 10:00S 17°06' W 095°12'1313.3 110 / 161018.6 19.0 19.8
2020-Oct-23 09:00S 16°54' W 095°18'8 8.3 120 / 171018.7 19.1 20.0
2020-Oct-23 08:00S 16°48' W 095°24'1313.3 120 / 171019.0 19.2 20.1
2020-Oct-23 07:00S 16°36' W 095°30'1212.0 110 / 171019.5 19.4 20.1
2020-Oct-23 06:00S 16°24' W 095°30'1313.3 110 / 181020.2 19.6 20.1
2020-Oct-23 05:00S 16°12' W 095°36'1313.3 100 / 191020.4 19.7 20.1
2020-Oct-23 04:00S 16°00' W 095°42'8 8.3 110 / 181020.0 19.8 20.1
2020-Oct-23 03:00S 15°54' W 095°48'1313.3 110 / 201019.4 19.7 20.1
2020-Oct-23 02:00S 15°42' W 095°54'1313.3 110 / 201018.6 19.7 20.3
2020-Oct-23 01:00S 15°30' W 096°00'1212.0 110 / 201017.8 19.8 20.3
2020-Oct-23 00:00S 15°18' W 096°00'1313.3 110 / 211017.0 19.9 20.2
2020-Oct-22 23:00S 15°06' W 096°06'8 8.3 110 / 221016.8 19.8 20.1
2020-Oct-22 22:00S 15°00' W 096°12'1313.3 110 / 231016.9 19.9 20.2
2020-Oct-22 21:00S 14°48' W 096°18'1313.3 100 / 221017.1 19.7 20.5
2020-Oct-22 20:00S 14°36' W 096°24'6 6.0 100 / 221017.5 20.1 20.5
2020-Oct-22 19:00S 14°30' W 096°24'8 8.4 100 / 231018.2 20.1 20.4
2020-Oct-22 18:00S 14°24' W 096°30'1212.0 110 / 231018.6 20.0 20.5
2020-Oct-22 17:00S 14°12' W 096°30'8 8.4 100 / 241018.8 20.1 20.3
2020-Oct-22 16:00S 14°06' W 096°36'1313.3 110 / 231018.7 20.1 20.3
2020-Oct-22 15:00S 13°54' W 096°42'6 6.0 110 / 241018.4 19.9 20.4
2020-Oct-22 14:00S 13°48' W 096°42'120 9.2 110 / 221017.8 19.7 20.5
2020-Oct-22 01:00S 12°00' W 097°36'1212.0 110 / 221014.8 20.1 21.6
2020-Oct-22 00:00S 11°48' W 097°36'8 8.4 110 / 221014.3 20.3 21.6
2020-Oct-21 23:00S 11°42' W 097°42'1313.4 110 / 221014.1 20.3 21.7
2020-Oct-21 22:00S 11°30' W 097°48'6 6.0 110 / 221014.3 19.7 21.6
2020-Oct-21 21:00S 11°24' W 097°48'1313.4 110 / 211014.8 20.5 21.6
2020-Oct-21 20:00S 11°12' W 097°54'8 8.4 110 / 211015.6 20.1 21.7
2020-Oct-21 19:00S 11°06' W 098°00'6 6.0 100 / 221016.1 20.3 21.6
2020-Oct-21 18:00S 11°00' W 098°00'1313.4 100 / 221016.7 20.5 21.6
2020-Oct-21 17:00S 10°48' W 098°06'8 8.4 110 / 221017.2 20.2 21.5
2020-Oct-21 16:00S 10°42' W 098°12'1212.0 110 / 241017.0 20.6 21.5
2020-Oct-21 15:00S 10°30' W 098°12'8 8.4 100 / 241016.5 20.2 21.6
2020-Oct-21 14:00S 10°24' W 098°18'8 8.4 110 / 231015.6 20.4 21.6
2020-Oct-21 13:00S 10°18' W 098°24'1212.0 100 / 231014.7 19.7 21.6
2020-Oct-21 12:00S 10°06' W 098°24'8 8.4 100 / 241014.0 19.7 21.6
2020-Oct-21 11:00S 10°00' W 098°30'1212.0 100 / 221013.4 19.8 21.7
2020-Oct-21 10:00S 09°48' W 098°30'8 8.4 110 / 221013.4 20.0 21.7
2020-Oct-21 09:00S 09°42' W 098°36'1313.4 110 / 211013.6 20.2 21.7
2020-Oct-21 08:00S 09°30' W 098°42'6 6.0 120 / 231014.0 19.9 21.9
2020-Oct-21 07:00S 09°24' W 098°42'8 8.4 120 / 211014.6 20.2 21.9
2020-Oct-21 06:00S 09°18' W 098°48'1313.4 120 / 211014.9 20.5 21.9
2020-Oct-21 05:00S 09°06' W 098°54'6 6.0 110 / 211014.7 20.3 22.0
2020-Oct-21 04:00S 09°00' W 098°54'1313.4 120 / 211014.3 20.8 22.0
2020-Oct-21 03:00S 08°48' W 099°00'8 8.4 120 / 201013.8 21.0 22.0
2020-Oct-21 02:00S 08°42' W 099°06'1212.0 120 / 211013.1 21.2 22.0
2020-Oct-21 01:00S 08°30' W 099°06'8 8.4 130 / 201012.4 21.4 22.0
2020-Oct-21 00:00S 08°24' W 099°12'8 8.4 130 / 191011.9 21.6 22.1
2020-Oct-20 23:00S 08°18' W 099°18'1212.0 120 / 191012.0 21.6 22.1
2020-Oct-20 22:00S 08°06' W 099°18'8 8.4 110 / 181012.1 21.3 22.0
2020-Oct-20 21:00S 08°00' W 099°24'1212.0 110 / 201012.6 21.0 22.0
2020-Oct-20 20:00S 07°48' W 099°24'8 8.4 120 / 201013.3 21.4 22.0
2020-Oct-20 19:00S 07°42' W 099°30'8 8.4 120 / 201014.0 21.6 21.9
2020-Oct-20 18:00S 07°36' W 099°36'1212.0 110 / 201015.1 21.7 21.6
2020-Oct-20 17:00S 07°24' W 099°36'8 8.5 120 / 151015.8 21.3 21.4
2020-Oct-20 16:00S 07°18' W 099°42'1313.4 120 / 191015.7 21.7 21.4
2020-Oct-20 15:00S 07°06' W 099°48'6 6.0 120 / 181015.4 22.0 21.2
2020-Oct-20 14:00S 07°00' W 099°48'1313.4 120 / 181014.6 21.6 21.2
2020-Oct-20 13:00S 06°48' W 099°54'8 8.5 130 / 161013.9 21.4 21.2
2020-Oct-20 12:00S 06°42' W 100°00'1212.0 130 / 171013.0 21.3 21.2
2020-Oct-20 11:00S 06°30' W 100°00'8 8.5 120 / 161012.6 21.3 21.2
2020-Oct-20 10:00S 06°24' W 100°06'   120 / 171012.7 21.1 21.2

Dump ship's entire track history